Time;durP1;ratioP1;P1;durP2;ratioP2;P2;SDS_P1;SDS_P2;PMS_P1;PMS_P2;Temp;Humidity;BMP_temperature;BMP_pressure;BME280_temperature;BME280_humidity;BME280_pressure;Samples;Min_cycle;Max_cycle;Signal;HPM_P1;HPM_P2
2023/10/24 00:01:53;;;;;;;;;6.20;6.20;;;;;18.07;42.76;99248.03;5068490;28;8880;-76
2023/10/24 00:04:22;;;;;;;;;10.80;10.80;;;;;18.11;42.59;99249.56;5068871;28;8834;-78
2023/10/24 00:07:06;;;;;;;;;8.80;8.40;;;;;18.07;42.63;99241.88;5045857;28;8825;-75
2023/10/24 00:09:34;;;;;;;;;9.40;9.40;;;;;18.01;42.70;99232.41;5043700;28;9923;-77
2023/10/24 00:12:04;;;;;;;;;11.60;9.80;;;;;17.69;43.37;99240.38;4976516;28;8874;-79
2023/10/24 00:14:33;;;;;;;;;8.20;8.00;;;;;17.99;42.91;99236.94;5006809;28;8898;-76
2023/10/24 00:17:04;;;;;;;;;8.20;8.20;;;;;17.75;43.14;99236.53;5006273;28;8869;-76
2023/10/24 00:19:33;;;;;;;;;7.00;7.00;;;;;17.93;42.81;99232.84;5006323;28;8866;-75
2023/10/24 00:22:02;;;;;;;;;7.40;7.20;;;;;17.98;42.64;99229.91;4973694;28;8866;-78
2023/10/24 00:24:31;;;;;;;;;8.00;8.00;;;;;17.80;43.01;99222.97;4988783;28;8910;-76
2023/10/24 00:27:00;;;;;;;;;10.60;8.60;;;;;17.97;42.76;99226.41;5028501;28;8894;-76
2023/10/24 00:29:29;;;;;;;;;7.20;7.20;;;;;18.01;42.60;99223.56;5010204;28;8986;-78
2023/10/24 00:31:59;;;;;;;;;9.20;9.20;;;;;17.85;42.84;99224.41;5007701;28;8837;-77
2023/10/24 00:34:30;;;;;;;;;7.00;7.00;;;;;17.68;43.08;99225.34;5045913;28;8853;-78
2023/10/24 00:36:59;;;;;;;;;9.80;9.00;;;;;17.58;43.55;99226.81;5012888;28;9083;-76
2023/10/24 00:39:27;;;;;;;;;7.20;6.40;;;;;17.71;43.34;99225.19;5029385;28;9010;-78
2023/10/24 00:41:56;;;;;;;;;7.40;7.40;;;;;17.91;42.84;99223.22;5058469;28;8886;-78
2023/10/24 00:44:27;;;;;;;;;9.40;8.40;;;;;17.72;43.26;99223.38;5044586;28;8909;-75
2023/10/24 00:46:56;;;;;;;;;8.80;7.80;;;;;17.51;43.45;99213.03;5060602;28;8845;-76
2023/10/24 00:49:25;;;;;;;;;7.80;7.80;;;;;17.62;43.36;99217.72;5048458;28;8861;-76
2023/10/24 00:51:56;;;;;;;;;10.20;9.00;;;;;17.70;43.23;99210.22;5063285;28;8861;-77
2023/10/24 00:54:28;;;;;;;;;7.80;7.80;;;;;17.88;42.82;99221.59;5063597;28;8857;-77
2023/10/24 00:56:57;;;;;;;;;7.00;7.00;;;;;17.81;43.00;99224.69;5048010;28;8845;-76
2023/10/24 00:59:27;;;;;;;;;4.20;4.20;;;;;17.73;43.13;99219.81;5064305;28;8845;-76
2023/10/24 01:01:56;;;;;;;;;7.20;7.20;;;;;17.72;43.09;99216.28;5047283;28;8869;-78
2023/10/24 01:04:26;;;;;;;;;9.20;8.80;;;;;17.87;42.91;99211.91;5048527;28;9619;-76
2023/10/24 01:06:56;;;;;;;;;9.20;9.20;;;;;17.90;42.64;99209.06;5047113;28;8877;-76
2023/10/24 01:09:25;;;;;;;;;8.80;6.80;;;;;17.91;42.73;99208.13;5063595;28;8864;-77
2023/10/24 01:11:55;;;;;;;;;7.40;7.00;;;;;17.74;42.91;99209.09;5056440;28;8843;-76
2023/10/24 01:14:23;;;;;;;;;8.60;8.60;;;;;17.71;43.02;99203.09;5067798;28;9679;-76
2023/10/24 01:16:52;;;;;;;;;8.60;8.60;;;;;17.44;43.80;99209.00;5067413;28;8850;-76
2023/10/24 01:19:21;;;;;;;;;10.00;9.80;;;;;17.25;44.22;99205.56;4970537;28;8842;-76
2023/10/24 01:21:52;;;;;;;;;8.80;8.00;;;;;17.13;44.66;99210.59;5068432;28;8854;-76
2023/10/24 01:24:21;;;;;;;;;9.00;9.00;;;;;17.31;43.94;99206.13;5033048;28;8862;-76
2023/10/24 01:26:50;;;;;;;;;9.00;8.40;;;;;17.39;43.72;99203.91;5066941;28;8854;-77
2023/10/24 01:29:18;;;;;;;;;8.60;8.00;;;;;17.48;43.55;99215.84;5066562;28;9810;-76
2023/10/24 01:31:47;;;;;;;;;7.60;6.80;;;;;17.46;43.73;99207.09;5064364;28;8971;-76
2023/10/24 01:34:16;;;;;;;;;10.80;10.40;;;;;17.40;43.79;99207.44;5046307;28;8856;-77
2023/10/24 01:36:45;;;;;;;;;8.00;8.00;;;;;17.36;43.82;99212.06;5046614;28;8989;-77
2023/10/24 01:39:16;;;;;;;;;8.40;8.40;;;;;17.41;43.66;99195.88;5047803;28;8900;-77
2023/10/24 01:41:45;;;;;;;;;8.40;7.40;;;;;17.45;43.75;99202.72;5046082;28;8856;-74
2023/10/24 01:44:14;;;;;;;;;7.40;7.20;;;;;17.50;43.33;99205.13;5010236;28;8843;-76
2023/10/24 01:46:43;;;;;;;;;8.00;8.00;;;;;17.52;43.36;99211.22;5070078;28;8854;-76
2023/10/24 01:49:12;;;;;;;;;6.60;6.60;;;;;17.47;43.39;99207.94;5086264;28;10035;-75
2023/10/24 01:51:41;;;;;;;;;7.20;7.20;;;;;17.26;43.95;99215.31;5071541;28;8931;-77
2023/10/24 01:54:09;;;;;;;;;8.60;7.60;;;;;17.20;44.13;99211.16;5070088;28;8939;-75
2023/10/24 01:56:40;;;;;;;;;9.80;7.00;;;;;17.10;44.41;99221.41;5052103;28;8839;-74
2023/10/24 01:59:09;;;;;;;;;8.60;7.80;;;;;16.95;44.88;99217.75;5036432;28;8880;-76
2023/10/24 02:01:39;;;;;;;;;6.60;6.60;;;;;16.91;44.88;99220.63;5083036;28;8861;-76
2023/10/24 02:04:08;;;;;;;;;7.20;7.20;;;;;17.00;44.34;99220.16;5081915;28;8846;-74
2023/10/24 02:06:43;;;;;;;;;9.00;8.00;;;;;16.92;44.55;99217.06;5086676;28;8854;-75
2023/10/24 02:09:13;;;;;;;;;8.80;8.00;;;;;16.84;44.75;99211.31;5086496;28;8992;-76
2023/10/24 02:11:43;;;;;;;;;5.60;4.60;;;;;16.88;44.60;99213.69;5070263;28;8842;-76
2023/10/24 02:14:12;;;;;;;;;6.20;6.20;;;;;16.97;44.24;99213.22;5036803;28;8993;-75
2023/10/24 02:16:41;;;;;;;;;6.60;6.60;;;;;17.06;44.28;99219.84;5069816;28;8846;-76
2023/10/24 02:19:10;;;;;;;;;11.20;7.60;;;;;17.03;44.18;99232.44;5068101;28;8901;-78
2023/10/24 02:21:39;;;;;;;;;6.60;6.60;;;;;16.91;44.60;99233.91;5069550;28;8977;-77
2023/10/24 02:24:08;;;;;;;;;8.00;6.80;;;;;17.12;44.09;99246.09;5052028;28;8831;-77
2023/10/24 02:26:38;;;;;;;;;6.80;6.00;;;;;17.02;44.32;99241.31;5035995;28;8861;-77
2023/10/24 02:29:08;;;;;;;;;7.80;6.80;;;;;17.10;44.12;99247.13;5052359;28;8843;-76
2023/10/24 02:31:37;;;;;;;;;8.00;5.40;;;;;17.27;43.78;99248.88;5070451;28;8908;-77
2023/10/24 02:34:06;;;;;;;;;5.40;5.40;;;;;17.24;43.61;99244.56;5063065;28;8906;-75
2023/10/24 02:36:35;;;;;;;;;6.00;6.00;;;;;17.24;43.74;99247.22;5050638;28;8856;-76
2023/10/24 02:39:04;;;;;;;;;4.40;4.20;;;;;17.30;43.47;99251.38;5050382;28;9022;-77
2023/10/24 02:41:33;;;;;;;;;8.00;6.40;;;;;17.34;43.36;99261.78;5071781;28;8971;-76
2023/10/24 02:44:01;;;;;;;;;5.40;4.40;;;;;17.45;43.40;99268.28;5085809;28;8939;-76
2023/10/24 02:46:32;;;;;;;;;7.40;7.40;;;;;17.53;43.28;99261.63;4994833;28;8861;-75
2023/10/24 02:49:01;;;;;;;;;6.20;6.20;;;;;17.56;42.83;99264.09;5024644;28;8893;-74
2023/10/24 02:51:30;;;;;;;;;8.20;6.20;;;;;17.60;42.68;99256.81;5046907;28;8861;-74
2023/10/24 02:53:59;;;;;;;;;6.20;6.20;;;;;17.57;42.78;99260.53;5045495;28;8888;-75
2023/10/24 02:56:28;;;;;;;;;5.00;4.20;;;;;17.58;42.80;99262.22;5027200;28;8853;-75
2023/10/24 02:58:57;;;;;;;;;4.00;4.00;;;;;17.37;43.11;99274.03;5044452;28;8849;-75
2023/10/24 03:01:26;;;;;;;;;7.20;6.20;;;;;17.23;43.34;99281.81;5027648;28;8962;-74
2023/10/24 03:03:56;;;;;;;;;5.60;5.00;;;;;17.29;43.50;99274.44;4994497;28;8862;-75
2023/10/24 03:06:25;;;;;;;;;9.80;8.20;;;;;17.35;43.38;99282.06;5011151;28;8869;-74
2023/10/24 03:08:54;;;;;;;;;8.00;8.00;;;;;17.41;43.21;99272.06;5043826;28;8870;-77
2023/10/24 03:11:23;;;;;;;;;9.00;8.20;;;;;17.45;43.05;99278.94;5027068;28;9603;-75
2023/10/24 03:13:53;;;;;;;;;12.60;11.00;;;;;17.46;42.77;99278.00;5027024;28;8964;-75
2023/10/24 03:16:23;;;;;;;;;6.20;6.20;;;;;17.46;43.01;99278.00;5027074;28;8880;-75
2023/10/24 03:18:52;;;;;;;;;6.60;6.60;;;;;17.48;42.84;99281.44;5067950;28;8846;-75
2023/10/24 03:21:22;;;;;;;;;5.00;5.00;;;;;17.49;42.67;99281.31;5065953;28;8862;-75
2023/10/24 03:23:51;;;;;;;;;5.40;5.20;;;;;17.49;42.85;99285.78;5066912;28;8884;-75
2023/10/24 03:26:20;;;;;;;;;6.20;5.80;;;;;17.50;42.77;99271.56;5066988;28;8902;-77
2023/10/24 03:28:49;;;;;;;;;7.60;7.40;;;;;17.48;42.97;99276.13;5049830;28;8876;-75
2023/10/24 03:31:18;;;;;;;;;4.40;3.80;;;;;17.45;42.80;99278.94;5066831;28;8855;-74
2023/10/24 03:33:47;;;;;;;;;7.00;7.00;;;;;17.43;42.76;99276.34;5049732;28;8974;-75
2023/10/24 03:36:16;;;;;;;;;6.20;6.20;;;;;17.45;42.86;99274.47;5078089;28;8849;-77
2023/10/24 03:38:46;;;;;;;;;10.80;10.80;;;;;17.46;42.92;99276.19;5042020;28;9636;-75
2023/10/24 03:41:15;;;;;;;;;20.40;20.40;;;;;17.47;42.86;99277.91;5060829;28;8919;-77
2023/10/24 03:43:48;;;;;;;;;6.60;6.60;;;;;17.49;42.78;99277.81;5049297;28;8857;-75
2023/10/24 03:46:17;;;;;;;;;7.60;7.60;;;;;17.49;42.71;99283.13;5049106;28;8857;-76
2023/10/24 03:48:46;;;;;;;;;8.20;7.40;;;;;17.49;42.80;99281.31;5048763;28;8976;-74
2023/10/24 03:51:15;;;;;;;;;8.80;8.40;;;;;17.50;42.67;99287.53;5055565;28;8847;-77
2023/10/24 03:53:44;;;;;;;;;7.40;7.00;;;;;17.44;42.75;99285.16;5069354;28;9596;-75
2023/10/24 03:56:14;;;;;;;;;4.60;4.60;;;;;17.45;42.63;99274.47;5071044;28;8846;-75
2023/10/24 03:58:43;;;;;;;;;9.20;8.60;;;;;17.43;42.57;99279.00;5070165;28;8899;-78
2023/10/24 04:01:12;;;;;;;;;8.00;7.40;;;;;17.41;42.66;99278.22;5068726;28;10113;-78
2023/10/24 04:03:41;;;;;;;;;7.00;7.00;;;;;17.32;42.55;99271.59;5049045;28;9575;-74
2023/10/24 04:06:11;;;;;;;;;6.80;6.20;;;;;17.20;43.07;99267.78;5047405;28;8891;-77
2023/10/24 04:08:40;;;;;;;;;6.40;5.00;;;;;17.14;43.09;99259.28;5048479;28;8853;-75
2023/10/24 04:11:15;;;;;;;;;6.80;6.80;;;;;17.20;42.88;99265.13;5048730;28;8841;-76
2023/10/24 04:13:45;;;;;;;;;7.20;7.20;;;;;17.10;43.05;99255.06;5048670;28;8879;-78
2023/10/24 04:16:14;;;;;;;;;5.20;5.20;;;;;17.18;42.92;99260.84;5048548;28;8837;-77
2023/10/24 04:18:45;;;;;;;;;6.80;5.60;;;;;17.09;42.93;99259.50;5027487;28;8849;-75
2023/10/24 04:21:15;;;;;;;;;11.00;11.00;;;;;17.11;42.93;99268.25;5027444;28;9029;-77
2023/10/24 04:23:44;;;;;;;;;6.60;6.60;;;;;17.14;42.78;99261.94;5045564;28;8873;-78
2023/10/24 04:26:15;;;;;;;;;9.40;7.20;;;;;17.18;42.76;99266.16;5045633;28;8868;-76
2023/10/24 04:28:44;;;;;;;;;8.00;8.00;;;;;17.11;42.64;99256.78;5045754;28;8841;-76
2023/10/24 04:31:13;;;;;;;;;11.80;11.60;;;;;16.99;42.94;99266.25;4980538;28;8860;-77
2023/10/24 04:33:42;;;;;;;;;13.00;11.00;;;;;16.87;43.28;99262.44;5045884;28;8972;-78
2023/10/24 04:36:11;;;;;;;;;12.60;12.00;;;;;16.68;43.87;99265.19;5042698;28;8983;-77
2023/10/24 04:38:40;;;;;;;;;4.80;4.40;;;;;16.48;44.10;99257.38;5045557;28;8880;-76
2023/10/24 04:41:09;;;;;;;;;7.40;6.40;;;;;16.41;44.32;99262.06;5045582;28;9571;-77
2023/10/24 04:43:39;;;;;;;;;6.60;6.60;;;;;16.35;44.33;99259.72;4984039;28;8894;-75
2023/10/24 04:46:09;;;;;;;;;8.60;7.00;;;;;16.53;43.81;99256.19;5046100;28;8845;-75
2023/10/24 04:48:38;;;;;;;;;7.00;5.80;;;;;16.59;43.61;99252.38;5046358;28;8885;-75
2023/10/24 04:51:11;;;;;;;;;5.80;5.20;;;;;16.47;43.91;99251.19;4978859;28;8872;-76
2023/10/24 04:53:40;;;;;;;;;8.60;8.60;;;;;16.47;43.96;99247.69;5045812;28;9590;-79
2023/10/24 04:56:09;;;;;;;;;7.00;7.00;;;;;16.42;43.75;99247.88;5038758;28;8835;-79
2023/10/24 04:58:39;;;;;;;;;7.00;7.00;;;;;16.50;43.68;99244.88;5044164;28;8881;-77
2023/10/24 05:01:09;;;;;;;;;5.40;5.20;;;;;16.43;43.70;99236.31;5047244;28;9634;-80
2023/10/24 05:03:38;;;;;;;;;6.60;6.60;;;;;16.26;44.09;99231.84;5067836;28;8901;-78
2023/10/24 05:06:07;;;;;;;;;5.20;5.20;;;;;16.36;43.14;99233.13;5014465;28;8892;-79
2023/10/24 05:08:36;;;;;;;;;5.00;5.00;;;;;16.42;43.31;99238.13;5024260;28;9596;-78
2023/10/24 05:11:05;;;;;;;;;6.00;5.00;;;;;16.40;43.18;99234.69;5068215;28;9006;-79
2023/10/24 05:13:34;;;;;;;;;6.00;6.00;;;;;16.46;43.08;99235.38;5049202;28;8862;-76
2023/10/24 05:16:04;;;;;;;;;7.60;7.20;;;;;16.49;42.85;99236.03;5067891;28;8958;-77
2023/10/24 05:18:33;;;;;;;;;6.00;6.00;;;;;16.46;42.83;99244.16;5067923;28;9604;-79
2023/10/24 05:21:02;;;;;;;;;7.40;7.00;;;;;16.56;42.45;99233.94;5062424;28;9638;-78
2023/10/24 05:23:31;;;;;;;;;5.00;5.00;;;;;16.58;42.34;99234.72;5060441;28;8850;-79
2023/10/24 05:26:00;;;;;;;;;31.00;28.40;;;;;16.68;42.31;99236.00;5054725;28;9131;-80
2023/10/24 05:28:30;;;;;;;;;46.50;37.25;;;;;16.73;42.15;99233.94;5072189;28;8953;-79
2023/10/24 05:30:59;;;;;;;;;48.75;39.75;;;;;16.88;41.76;99232.28;5070553;28;8933;-74
2023/10/24 05:33:30;;;;;;;;;49.25;39.75;;;;;16.94;41.83;99241.72;5087253;28;9619;-79
2023/10/24 05:36:01;;;;;;;;;48.75;41.50;;;;;17.04;41.78;99232.34;5065591;28;8906;-78
2023/10/24 05:38:32;;;;;;;;;31.60;30.60;;;;;16.96;41.84;99231.88;5069602;28;8855;-79
2023/10/24 05:41:01;;;;;;;;;21.20;19.00;;;;;17.11;41.43;99231.06;5072000;28;8904;-78
2023/10/24 05:43:30;;;;;;;;;13.20;13.20;;;;;17.03;41.26;99233.28;5085690;28;8891;-75
2023/10/24 05:45:59;;;;;;;;;12.20;10.00;;;;;16.99;41.29;99227.28;5065529;28;8877;-79
2023/10/24 05:48:30;;;;;;;;;8.80;7.00;;;;;16.94;41.46;99225.81;5073064;28;8850;-78
2023/10/24 05:50:59;;;;;;;;;9.00;9.00;;;;;16.84;41.58;99229.88;5068542;28;8823;-78
2023/10/24 05:53:28;;;;;;;;;8.00;7.40;;;;;16.85;41.57;99226.28;5064102;28;8846;-79
2023/10/24 05:55:57;;;;;;;;;8.20;7.00;;;;;16.99;41.10;99229.06;5076368;28;8874;-79
2023/10/24 05:58:26;;;;;;;;;6.80;6.00;;;;;16.92;41.20;99230.34;5020270;28;8846;-80
2023/10/24 06:00:55;;;;;;;;;5.20;5.20;;;;;17.07;40.78;99229.53;5032704;28;8910;-78
2023/10/24 06:03:26;;;;;;;;;8.00;8.00;;;;;17.23;40.85;99231.34;5071329;28;8896;-78
2023/10/24 06:05:56;;;;;;;;;9.40;9.40;;;;;17.33;40.83;99229.97;5070803;28;8969;-80
2023/10/24 06:08:25;;;;;;;;;11.00;8.80;;;;;17.39;40.82;99234.94;5086472;28;8903;-78
2023/10/24 06:10:58;;;;;;;;;7.80;7.80;;;;;17.45;40.56;99236.41;5070428;28;8972;-78
2023/10/24 06:13:27;;;;;;;;;9.20;9.20;;;;;17.41;40.79;99234.88;5070589;28;8935;-79
2023/10/24 06:15:56;;;;;;;;;5.60;5.60;;;;;17.61;40.34;99234.63;5070519;28;8944;-80
2023/10/24 06:18:25;;;;;;;;;7.20;6.20;;;;;17.57;40.27;99231.28;5036566;28;8890;-80
2023/10/24 06:20:55;;;;;;;;;7.80;6.80;;;;;17.45;40.05;99228.44;5070444;28;8846;-77
2023/10/24 06:23:25;;;;;;;;;7.40;6.80;;;;;17.43;39.97;99223.19;5070588;28;9631;-77
2023/10/24 06:25:55;;;;;;;;;5.80;5.80;;;;;17.43;40.10;99217.03;5035044;28;8886;-77
2023/10/24 06:28:25;;;;;;;;;7.40;6.80;;;;;17.45;40.33;99220.47;5070458;28;8850;-76
2023/10/24 06:30:58;;;;;;;;;14.20;11.20;;;;;17.55;40.42;99221.66;5069975;28;9618;-77
2023/10/24 06:33:29;;;;;;;;;8.80;8.20;;;;;17.63;39.73;99219.47;5035299;28;8838;-77
2023/10/24 06:36:00;;;;;;;;;9.60;9.60;;;;;17.73;39.90;99220.66;5073808;28;8862;-76
2023/10/24 06:38:30;;;;;;;;;15.60;15.00;;;;;17.76;39.94;99228.47;5070866;28;8863;-78
2023/10/24 06:40:59;;;;;;;;;17.60;16.40;;;;;18.00;39.32;99221.84;5070254;28;8858;-77
2023/10/24 06:43:28;;;;;;;;;12.40;12.40;;;;;18.11;39.15;99219.47;5069865;28;8850;-77
2023/10/24 06:45:57;;;;;;;;;7.60;7.60;;;;;18.22;39.05;99222.34;5072958;28;8870;-76
2023/10/24 06:48:26;;;;;;;;;9.80;8.80;;;;;18.42;38.95;99220.31;5053905;28;8847;-78
2023/10/24 06:50:55;;;;;;;;;7.20;7.20;;;;;18.59;38.72;99216.66;5051618;28;8885;-81
2023/10/24 06:53:26;;;;;;;;;8.00;8.00;;;;;18.66;38.33;99207.38;5071266;28;8881;-84
2023/10/24 06:55:59;;;;;;;;;9.40;7.80;;;;;18.64;38.63;99214.59;5053674;28;8876;-84
2023/10/24 06:58:29;;;;;;;;;9.80;9.20;;;;;18.61;38.86;99213.00;5037506;28;8842;-85
2023/10/24 07:00:58;;;;;;;;;9.60;9.00;;;;;18.73;38.38;99212.25;5070966;28;8875;-84
2023/10/24 07:03:28;;;;;;;;;9.20;9.00;;;;;18.96;37.84;99217.16;5036695;28;8846;-84
2023/10/24 07:06:00;;;;;;;;;8.40;7.20;;;;;18.96;37.41;99203.84;5070588;28;8880;-84
2023/10/24 07:08:31;;;;;;;;;9.00;9.00;;;;;18.82;37.79;99207.31;5071847;28;8850;-84
2023/10/24 07:11:00;;;;;;;;;9.00;8.20;;;;;19.11;37.40;99209.06;5052591;28;8862;-84
2023/10/24 07:13:32;;;;;;;;;7.60;7.40;;;;;19.16;37.18;99202.59;5053728;28;8843;-85
2023/10/24 07:16:01;;;;;;;;;9.80;9.00;;;;;19.31;36.95;99207.84;5071960;28;8874;-84
2023/10/24 07:18:31;;;;;;;;;9.20;8.00;;;;;19.38;36.77;99213.63;5071889;28;8859;-84
2023/10/24 07:21:00;;;;;;;;;11.40;10.60;;;;;19.53;36.85;99209.16;5052515;28;8874;-84
2023/10/24 07:23:31;;;;;;;;;9.80;8.00;;;;;19.76;36.46;99212.19;5070977;28;8869;-84
2023/10/24 07:26:00;;;;;;;;;7.40;7.40;;;;;19.74;36.40;99212.28;5052895;28;8847;-84
2023/10/24 07:28:29;;;;;;;;;14.00;13.40;;;;;19.85;36.41;99200.91;5019630;28;8878;-84
2023/10/24 07:30:59;;;;;;;;;8.40;7.40;;;;;20.00;36.22;99204.41;5060593;28;8859;-83
2023/10/24 07:33:28;;;;;;;;;15.00;13.40;;;;;20.04;36.65;99209.41;5071794;28;8873;-85
2023/10/24 07:36:04;;;;;;;;;20.00;19.20;;;;;20.19;36.45;99212.03;5070785;28;8858;-84
2023/10/24 07:38:36;;;;;;;;;18.20;16.80;;;;;20.38;37.58;99207.19;5072487;28;8874;-84
2023/10/24 07:41:06;;;;;;;;;15.20;13.80;;;;;20.55;37.90;99198.06;5072499;28;8891;-84
2023/10/24 07:43:35;;;;;;;;;12.60;12.60;;;;;20.72;37.03;99190.72;5071725;28;8847;-84
2023/10/24 07:46:05;;;;;;;;;11.80;11.80;;;;;20.88;36.64;99189.53;5070225;28;8871;-85
2023/10/24 07:48:35;;;;;;;;;17.20;17.20;;;;;21.00;36.29;99193.19;5080478;28;8847;-83
2023/10/24 07:51:06;;;;;;;;;12.80;11.40;;;;;21.05;34.91;99179.53;5079967;28;9035;-81
2023/10/24 07:53:37;;;;;;;;;15.00;13.60;;;;;21.23;35.65;99177.34;5082915;28;8854;-84
2023/10/24 07:56:06;;;;;;;;;17.00;15.40;;;;;21.29;34.88;99173.38;5073080;28;8870;-83
2023/10/24 07:58:36;;;;;;;;;4.80;4.80;;;;;21.34;34.91;99176.59;5072801;28;8858;-82
2023/10/24 08:01:05;;;;;;;;;14.40;14.20;;;;;21.51;35.33;99168.19;5069585;28;8885;-84
2023/10/24 08:03:35;;;;;;;;;11.20;11.20;;;;;21.68;34.99;99175.03;5070565;28;8890;-83
2023/10/24 08:06:05;;;;;;;;;20.00;17.20;;;;;21.81;35.15;99167.81;5069459;28;8851;-84
2023/10/24 08:08:34;;;;;;;;;8.40;8.40;;;;;21.97;35.28;99170.19;5034824;28;8858;-82
2023/10/24 08:11:05;;;;;;;;;10.60;10.60;;;;;22.08;34.66;99166.72;5051391;28;8910;-85
2023/10/24 08:13:34;;;;;;;;;7.60;7.40;;;;;22.13;34.91;99166.38;5069024;28;8943;-85
2023/10/24 08:16:05;;;;;;;;;10.40;9.00;;;;;22.20;34.98;99165.81;5070547;28;8886;-85
2023/10/24 08:18:36;;;;;;;;;11.20;10.00;;;;;22.26;35.31;99169.88;5052917;28;8931;-85
2023/10/24 08:21:08;;;;;;;;;8.20;8.20;;;;;22.35;35.05;99171.84;5052844;28;8850;-85
2023/10/24 08:23:45;;;;;;;;;6.80;6.00;;;;;22.37;33.39;99167.22;5070786;28;8835;-82
2023/10/24 08:26:36;;;;;;;;;8.80;7.80;;;;;22.45;32.97;99160.41;5013871;28;8875;-84
2023/10/24 08:29:05;;;;;;;;;12.00;12.00;;;;;22.43;33.35;99165.91;5007161;28;9013;-83
2023/10/24 08:31:34;;;;;;;;;11.60;11.60;;;;;22.45;34.07;99161.28;5031905;28;8883;-82
2023/10/24 08:34:24;;;;;;;;;12.00;11.80;;;;;22.48;33.81;99165.53;5017809;28;8876;-83
2023/10/24 08:36:53;;;;;;;;;8.60;7.20;;;;;22.53;34.01;99160.69;5010398;28;8863;-82
2023/10/24 08:39:23;;;;;;;;;11.60;11.60;;;;;22.46;34.75;99164.81;4994210;28;8875;-84
2023/10/24 08:41:54;;;;;;;;;10.60;10.20;;;;;22.45;35.04;99160.41;5010848;28;8865;-84
2023/10/24 08:44:25;;;;;;;;;10.00;9.00;;;;;22.42;35.23;99143.59;5040038;28;8905;-84
2023/10/24 08:46:54;;;;;;;;;12.00;10.60;;;;;22.44;34.82;99148.84;5067797;28;8858;-84
2023/10/24 08:49:24;;;;;;;;;10.80;10.80;;;;;22.46;34.64;99146.91;5034103;28;8880;-84
2023/10/24 08:51:53;;;;;;;;;11.40;10.00;;;;;22.51;35.02;99143.88;5084184;28;9046;-83
2023/10/24 08:54:23;;;;;;;;;12.60;10.80;;;;;22.55;35.24;99146.19;5050968;28;8831;-84
2023/10/24 08:56:55;;;;;;;;;12.80;11.20;;;;;22.67;34.82;99146.22;5067413;28;8939;-84
2023/10/24 08:59:29;;;;;;;;;9.80;9.80;;;;;22.71;34.54;99143.19;5033069;28;8850;-84
2023/10/24 09:01:59;;;;;;;;;10.60;10.60;;;;;22.78;35.21;99136.34;5067681;28;8850;-86
2023/10/24 09:04:31;;;;;;;;;13.80;11.00;;;;;22.88;34.73;99128.44;5068004;28;8850;-84
2023/10/24 09:07:00;;;;;;;;;12.40;11.20;;;;;23.01;34.51;99131.03;5067528;28;9673;-84
2023/10/24 09:09:29;;;;;;;;;12.60;12.60;;;;;23.09;34.38;99134.00;5068106;28;8834;-85
2023/10/24 09:12:00;;;;;;;;;9.40;8.40;;;;;23.25;33.77;99130.06;5049762;28;8854;-83
2023/10/24 09:14:30;;;;;;;;;8.60;8.00;;;;;23.30;33.21;99123.34;5084544;28;8865;-83
2023/10/24 09:17:17;;;;;;;;;6.80;5.80;;;;;23.37;31.52;99121.88;5070815;28;8947;-84
2023/10/24 09:19:46;;;;;;;;;4.00;4.00;;;;;23.35;30.19;99114.94;5071100;28;9592;-84
2023/10/24 09:22:17;;;;;;;;;3.80;3.80;;;;;23.24;29.62;99106.91;5069467;28;8874;-83
2023/10/24 09:24:46;;;;;;;;;3.80;3.80;;;;;23.29;29.64;99115.44;5041147;28;8896;-83
2023/10/24 09:27:17;;;;;;;;;3.40;3.40;;;;;23.28;30.07;99098.50;5073222;28;8873;-86
2023/10/24 09:29:50;;;;;;;;;4.00;3.20;;;;;23.30;29.72;99109.94;5058859;28;8855;-83
2023/10/24 09:32:20;;;;;;;;;4.40;4.40;;;;;23.36;29.69;99100.56;5068174;28;8886;-84
2023/10/24 09:34:50;;;;;;;;;4.00;4.00;;;;;23.36;30.16;99090.66;5069521;28;9043;-84
2023/10/24 09:37:19;;;;;;;;;3.80;3.80;;;;;23.47;30.04;99088.91;5069633;28;8860;-85
2023/10/24 09:39:56;;;;;;;;;5.40;4.60;;;;;23.36;30.06;99082.63;5019221;28;8961;-84
2023/10/24 09:42:34;;;;;;;;;7.00;6.20;;;;;23.51;30.65;99085.88;5067781;28;8862;-83
2023/10/24 09:45:09;;;;;;;;;6.40;6.00;;;;;23.40;30.56;99069.81;5085357;28;8852;-84
2023/10/24 09:47:40;;;;;;;;;5.80;5.80;;;;;23.27;30.33;99061.06;5069566;28;8861;-83
2023/10/24 09:50:14;;;;;;;;;7.00;6.80;;;;;23.30;30.46;99059.00;5051928;28;8878;-84
2023/10/24 09:52:47;;;;;;;;;7.40;6.20;;;;;23.21;30.04;99049.00;5068829;28;8875;-84
2023/10/24 09:55:17;;;;;;;;;6.20;6.20;;;;;23.25;29.92;99047.78;5068322;28;8842;-84
2023/10/24 09:57:50;;;;;;;;;6.40;6.40;;;;;23.32;30.15;99043.63;5069414;28;8850;-83
2023/10/24 10:00:44;;;;;;;;;10.00;9.20;;;;;23.24;29.72;99038.03;5013347;28;8859;-83
2023/10/24 10:03:14;;;;;;;;;1.60;1.20;;;;;23.19;29.94;99029.53;4995098;28;9113;-84
2023/10/24 10:05:45;;;;;;;;;11.40;11.40;;;;;23.27;30.35;99026.22;5029219;28;8890;-82
2023/10/24 10:08:16;;;;;;;;;15.60;15.60;;;;;23.36;30.30;99025.47;4981685;28;8863;-84
2023/10/24 10:10:47;;;;;;;;;13.00;12.40;;;;;23.33;29.80;99014.97;4966655;28;8882;-83
2023/10/24 10:13:22;;;;;;;;;15.00;12.20;;;;;23.43;29.51;99013.25;5020984;28;8872;-82
2023/10/24 10:16:27;;;;;;;;;6.60;6.40;;;;;23.38;29.10;98996.69;5026410;28;8840;-82
2023/10/24 10:19:25;;;;;;;;;7.40;6.20;;;;;23.48;29.70;98986.88;5043160;28;8891;-82
2023/10/24 10:22:10;;;;;;;;;5.80;5.60;;;;;23.45;29.64;98979.09;5063856;28;8844;-83
2023/10/24 10:25:15;;;;;;;;;10.00;8.60;;;;;23.60;29.69;98976.97;5056319;28;8929;-82
2023/10/24 10:27:54;;;;;;;;;8.80;8.20;;;;;23.56;29.24;98972.84;4958380;28;8859;-83
2023/10/24 10:30:35;;;;;;;;;9.00;9.00;;;;;23.65;29.11;98974.75;4991310;28;8967;-82
2023/10/24 10:33:45;;;;;;;;;10.20;8.60;;;;;23.67;29.12;98975.47;4938377;28;8868;-82
2023/10/24 10:36:19;;;;;;;;;10.40;10.00;;;;;23.63;29.29;98974.03;4920224;28;8974;-83
2023/10/24 10:38:54;;;;;;;;;7.80;7.60;;;;;23.72;29.12;98972.41;4936355;28;8926;-84
2023/10/24 10:41:40;;;;;;;;;8.60;6.60;;;;;23.91;29.19;98956.41;4951480;28;8898;-82
2023/10/24 10:44:42;;;;;;;;;7.80;7.20;;;;;24.13;28.62;98959.94;4956437;28;8873;-82
2023/10/24 10:47:15;;;;;;;;;8.40;6.80;;;;;24.19;28.25;98959.44;4912928;29;8879;-83
2023/10/24 10:49:51;;;;;;;;;10.80;7.60;;;;;24.30;28.20;98958.47;4912445;29;9659;-83
2023/10/24 10:52:37;;;;;;;;;6.60;6.40;;;;;24.47;27.89;98955.16;4897184;29;8857;-83
2023/10/24 10:55:26;;;;;;;;;9.00;8.40;;;;;24.54;27.57;98961.66;4881402;29;8872;-83
2023/10/24 10:58:03;;;;;;;;;8.00;8.00;;;;;24.69;27.68;98959.47;4911850;29;8867;-84
2023/10/24 11:00:47;;;;;;;;;7.40;6.80;;;;;24.85;27.74;98947.34;4897264;29;8882;-82
2023/10/24 11:03:37;;;;;;;;;8.60;7.00;;;;;24.95;27.42;98950.09;4917682;29;9049;-82
2023/10/24 11:06:10;;;;;;;;;11.00;9.00;;;;;24.96;27.50;98946.38;5016247;28;8940;-84
2023/10/24 11:08:49;;;;;;;;;11.40;11.20;;;;;25.03;27.89;98942.16;5041271;28;9582;-82
2023/10/24 11:11:20;;;;;;;;;10.80;10.00;;;;;25.23;28.11;98941.19;4988323;28;9006;-83
2023/10/24 11:13:53;;;;;;;;;4.40;2.60;;;;;25.25;28.46;98927.59;5030977;28;9127;-82
2023/10/24 11:16:22;;;;;;;;;9.60;7.20;;;;;25.40;27.97;98918.13;5028512;28;8848;-82
2023/10/24 11:19:08;;;;;;;;;9.20;8.00;;;;;25.55;28.18;98920.38;5028708;28;9151;-84
2023/10/24 11:21:37;;;;;;;;;11.20;8.60;;;;;25.64;26.99;98908.75;5013514;28;8836;-84
2023/10/24 11:24:08;;;;;;;;;9.00;7.80;;;;;25.65;26.10;98905.06;5026706;28;8886;-83
2023/10/24 11:26:38;;;;;;;;;6.00;6.00;;;;;25.63;25.98;98905.22;5070935;28;8869;-83
2023/10/24 11:29:10;;;;;;;;;12.40;11.20;;;;;25.71;25.87;98899.94;5053574;28;8873;-82
2023/10/24 11:31:39;;;;;;;;;9.00;9.00;;;;;25.75;25.76;98894.28;5069864;28;8873;-83
2023/10/24 11:34:12;;;;;;;;;11.40;10.40;;;;;25.79;25.52;98901.06;5069823;28;8862;-84
2023/10/24 11:36:41;;;;;;;;;8.00;8.00;;;;;25.71;25.65;98897.25;5070680;28;8874;-83
2023/10/24 11:39:13;;;;;;;;;8.00;7.80;;;;;25.76;26.32;98888.75;5070172;28;8862;-83
2023/10/24 11:41:44;;;;;;;;;11.00;10.00;;;;;25.78;26.32;98889.44;5071306;28;8881;-82
2023/10/24 11:44:14;;;;;;;;;7.00;6.00;;;;;25.77;26.85;98885.03;5071369;28;8867;-83
2023/10/24 11:46:44;;;;;;;;;10.00;8.40;;;;;25.66;26.72;98871.75;5089601;28;8863;-84
2023/10/24 11:49:14;;;;;;;;;10.20;9.00;;;;;25.64;26.84;98881.81;5089924;28;8880;-83
2023/10/24 11:51:45;;;;;;;;;7.60;5.80;;;;;25.56;26.89;98869.09;5071881;28;8848;-82
2023/10/24 11:54:14;;;;;;;;;9.20;8.20;;;;;25.59;27.18;98863.44;5023084;28;8918;-83
2023/10/24 11:56:43;;;;;;;;;10.00;10.00;;;;;25.26;27.68;98853.97;5072086;28;8851;-82